Historyczne dane pomiarowe

Dodano dane terminowe – wersja testowa.

Dane z okresu 1951-2019

Wersja bazy: 1.34 [2019-03-16, lista zmian], aktualizacja planowana na 2019-04-15

Dane meteo z obszaru Polski uzyskane na podstawie danych udostępnionych przez Instytut Meteorologii i Gospodarki Wodnej – Państwowy Instytut Badawczy.

 

Wybierz Datę:    

       

TemperaturaWilgotnośćWiatrCiśnienieOpadyŚniegCzas trwania zjawisk
 Stacja t tx tn tng RH VA  wxwx mslp ppp RRR   cm mm wxwxwxwxwxwxwx
1987-08-14 14.1 19.5 8.5 4.8 78.0- 7.3 2.7---- 1.1------------
1987-08-13 13.1 18.5 8.0 6.3 81.8- 6.0 1.7---- 0.0------------
1987-08-12 13.0 18.6 8.5 7.3 71.0- 4.3 5.0---- 0.0------------
1987-08-11 12.9 17.0 11.4 11.1 89.3- 7.3 3.3---- 2.6------------
1987-08-10 13.9 18.2 13.0 11.8 88.3- 8.0 3.0---- 0.0------------
1987-08-09 17.6 23.6 12.0 7.1 65.3- 4.7 0.7---- 2.7------------
1987-08-08 15.6 21.7 9.8 6.9 66.0- 3.0 2.0---- 0.0------------
1987-08-07 12.7 19.0 8.0 6.7 71.3- 4.3 3.0---- 0.0------------
1987-08-06 12.3 16.4 9.8 7.9 78.0- 7.0 4.7---- 0.8------------
1987-08-05 13.2 18.0 8.0 6.4 69.8- 3.0 2.7---- 0.0------------
1987-08-04 13.1 17.3 10.3 7.4 81.8- 6.7 3.0---- 1.4------------
1987-08-03 14.0 18.5 10.5 9.0 76.5- 5.7 2.3---- 0.0------------
1987-08-02 14.6 18.4 11.5 10.9 78.5- 6.3 2.3---- 1.3------------
1987-08-01 15.6 20.4 12.0 10.5 82.5- 7.3 2.7---- 5.2------------
1987-07-31 15.3 18.8 14.1 11.2 91.8- 7.0 1.7---- 5.7------------
1987-07-30 17.3 24.0 9.0 6.4 74.3- 4.3 0.0---- 10.0------------
1987-07-29 14.9 19.5 11.5 10.9 71.5- 6.7 2.0---- 0.0------------
1987-07-28 14.5 18.8 12.5 11.0 79.8- 6.7 3.3---- 0.8------------
1987-07-27 12.1 17.1 8.9 7.2 72.0- 7.0 4.0---- 6.6------------
1987-07-26 14.2 18.3 13.1 10.8 73.3- 6.0 3.7---- 0.0------------
1987-07-25 18.6 23.2 16.0 13.5 74.8- 6.7 3.0---- 0.0------------
1987-07-24 21.0 25.6 15.7 13.5 69.3- 3.3 2.7---- 0.3------------
1987-07-23 21.3 26.7 11.5 10.6 72.0- 1.0 1.3---- 0.0------------
1987-07-22 19.5 23.8 16.4 13.5 84.3- 7.3 2.0---- 0.0------------
1987-07-21 18.7 29.6 11.5 8.6 75.5- 1.7 0.3---- 0.0------------
1987-07-20 18.2 21.5 16.5 15.3 87.5- 6.0 2.0---- 0.0------------
1987-07-19 19.0 25.2 15.8 15.5 86.8- 6.0 2.0---- 9.7------------
1987-07-18 20.7 25.2 17.5 16.7 86.0- 5.3 2.7---- 0.0------------
1987-07-17 18.7 23.9 13.6 11.2 83.5- 7.3 4.0---- 7.2------------
1987-07-16 19.1 24.6 10.4 5.9 67.3- 2.3 2.3---- 0.0------------
1987-07-15 16.2 22.1 8.0 3.3 68.0- 0.7 2.3---- 0.0------------
1987-07-14 16.1 20.0 10.7 8.6 68.0- 2.7 2.7---- 0.0------------
1987-07-13 16.8 20.0 13.0 11.0 71.3- 4.7 4.0---- 0.0------------
1987-07-12 19.8 28.1 15.0 14.0 75.3- 5.0 3.7---- 14.7------------
1987-07-11 16.2 21.4 9.6 6.8 71.5- 6.7 3.0---- 16.2------------
1987-07-10 14.4 18.5 10.6 8.9 64.0- 3.7 4.7---- 0.0------------
1987-07-09 17.6 22.6 15.0 15.0 81.0- 7.3 3.3---- 0.6------------
1987-07-08 22.2 29.1 15.0 13.1 63.8- 3.7 2.0---- 2.9------------
1987-07-07 20.4 27.0 10.5 6.8 59.0- 0.0 0.7---- 0.0------------
1987-07-06 19.6 24.2 10.0 4.3 61.3- 1.0 0.3---- 0.0------------
1987-07-05 17.3 21.9 13.0 11.9 72.8- 4.3 3.3---- 0.0------------
1987-07-04 18.4 22.6 14.6 12.6 65.8- 4.7 2.3---- 1.1------------
1987-07-03 18.7 23.2 13.0 9.0 69.0- 3.3 3.0---- 0.0------------
1987-07-02 19.2 21.2 16.6 16.0 79.0- 7.3 0.7---- 0.0------------
1987-07-01 24.0 30.6 19.5 15.3 73.8- 3.7 3.7---- 0.3------------
1987-06-30 24.2 29.8 19.6 16.5 74.5- 0.0 1.0---- 0.0------------
1987-06-29 19.0 25.0 12.4 7.9 82.0- 3.7 2.0---- 0.0------------
1987-06-28 18.3 23.3 13.8 9.4 77.5- 4.7 3.0---- 0.0------------
1987-06-27 18.6 22.0 15.8 15.0 78.0- 4.0 1.0---- 0.0------------
1987-06-26 16.5 23.4 10.3 8.5 76.0- 4.0 1.7---- 1.5------------
1987-06-25 13.3 18.0 10.4 11.2 87.8- 6.3 2.3---- 0.8------------
1987-06-24 15.9 20.6 12.6 11.0 70.8- 3.3 2.7---- 3.9------------
1987-06-23 15.1 19.4 13.3 12.7 88.5- 7.3 1.3---- 0.2------------
1987-06-22 17.8 25.3 12.0 7.7 71.3- 3.3 1.3---- 0.0------------
1987-06-21 17.3 24.0 9.3 5.2 67.5- 2.0 0.7---- 0.0------------
1987-06-20 15.6 21.7 8.0 3.5 64.3- 3.0 3.0---- 0.0------------
1987-06-19 12.1 16.6 7.0 4.9 78.0- 5.0 2.0---- 3.6------------
1987-06-18 12.1 16.6 6.0 1.3 75.0- 4.7 5.3---- 1.7------------
1987-06-17 12.0 14.5 10.4 8.5 73.8- 2.7 5.0---- 0.0------------
1987-06-16 13.6 25.4 10.0 10.2 87.3- 8.0 5.7---- 1.1------------
378.6 ms

 

Źródłem pochodzenia danych jest Instytut Meteorologii i Gospodarki Wodnej – Państwowy Instytut Badawczy. Dane Instytutu Meteorologii i Gospodarki Wodnej – Państwowego Instytutu Badawczego zostały przetworzone.

Dane źródłowe można odnaleźć na stronie https://dane.imgw.pl